Time;durP1;ratioP1;P1;durP2;ratioP2;P2;SDS_P1;SDS_P2;PMS_P1;PMS_P2;Temp;Humidity;BMP_temperature;BMP_pressure;BME280_temperature;BME280_humidity;BME280_pressure;Samples;Min_cycle;Max_cycle;Signal;HPM_P1;HPM_P2
2022/03/12 00:01:35;;;;;;;78.30;29.40;;;-2.40;99.90;;;;;;4424874;32;20146;-71
2022/03/12 00:04:04;;;;;;;72.73;29.13;;;-2.50;99.90;;;;;;4398896;32;20580;-71
2022/03/12 00:06:31;;;;;;;70.07;27.03;;;-2.50;99.90;;;;;;4409755;32;20218;-70
2022/03/12 00:08:57;;;;;;;76.63;27.87;;;-2.60;99.90;;;;;;4409573;32;20230;-70
2022/03/12 00:11:34;;;;;;;81.13;28.47;;;-2.60;99.90;;;;;;4410736;32;20201;-70
2022/03/12 00:14:04;;;;;;;73.17;28.30;;;-2.60;99.90;;;;;;4411762;32;20222;-70
2022/03/12 00:16:32;;;;;;;71.80;28.07;;;-2.50;99.90;;;;;;4410833;32;20219;-70
2022/03/12 00:19:02;;;;;;;82.20;29.70;;;-2.50;99.90;;;;;;4409797;32;20201;-70
2022/03/12 00:21:35;;;;;;;74.90;28.97;;;-2.50;99.90;;;;;;4423975;32;20551;-69
2022/03/12 00:24:03;;;;;;;76.87;29.47;;;-2.60;99.90;;;;;;4411493;32;20462;-69
2022/03/12 00:26:33;;;;;;;75.40;30.07;;;-2.60;99.90;;;;;;4410106;32;20223;-69
2022/03/12 00:28:59;;;;;;;79.33;29.30;;;-2.70;99.90;;;;;;4409631;32;20187;-70
2022/03/12 00:31:26;;;;;;;76.50;30.70;;;-2.80;99.90;;;;;;4409631;32;20170;-70
2022/03/12 00:33:54;;;;;;;81.83;29.30;;;-2.80;99.90;;;;;;4411021;32;20222;-70
2022/03/12 00:36:20;;;;;;;77.23;30.27;;;-2.90;99.90;;;;;;4411391;32;20226;-69
2022/03/12 00:38:48;;;;;;;81.80;30.53;;;-2.90;99.90;;;;;;4409460;32;20209;-70
2022/03/12 00:41:16;;;;;;;77.60;29.47;;;-3.00;99.90;;;;;;4411228;32;20193;-70
2022/03/12 00:43:44;;;;;;;80.97;30.40;;;-3.00;99.90;;;;;;4409422;32;20248;-70
2022/03/12 00:46:11;;;;;;;73.37;29.57;;;-3.10;99.90;;;;;;4409231;32;20187;-69
2022/03/12 00:48:40;;;;;;;79.67;29.20;;;-3.10;99.90;;;;;;4411282;32;20233;-69
2022/03/12 00:51:09;;;;;;;77.23;29.90;;;-3.10;99.90;;;;;;4410334;32;20175;-69
2022/03/12 00:53:37;;;;;;;81.90;30.77;;;-3.10;99.90;;;;;;4409716;32;20201;-69
2022/03/12 00:56:05;;;;;;;78.90;31.10;;;-3.10;99.90;;;;;;4410404;32;20238;-70
2022/03/12 00:58:32;;;;;;;77.33;29.47;;;-3.10;99.90;;;;;;4409278;32;20172;-69
2022/03/12 01:00:59;;;;;;;82.13;30.63;;;-3.10;99.90;;;;;;4410351;32;20211;-70
2022/03/12 01:03:26;;;;;;;81.93;30.10;;;-3.10;99.90;;;;;;4398478;32;20194;-69
2022/03/12 01:06:02;;;;;;;75.10;27.57;;;-3.10;99.90;;;;;;4410619;32;20248;-70
2022/03/12 01:08:30;;;;;;;75.73;28.87;;;-3.10;99.90;;;;;;4422457;32;20166;-69
2022/03/12 01:11:03;;;;;;;83.53;29.80;;;-3.10;99.90;;;;;;4409365;32;20197;-70
2022/03/12 01:13:30;;;;;;;71.00;28.87;;;-3.20;99.90;;;;;;4425275;32;20189;-69
2022/03/12 01:15:57;;;;;;;76.93;28.87;;;-3.30;99.90;;;;;;4409974;32;20553;-70
2022/03/12 01:18:25;;;;;;;73.47;28.20;;;-3.30;99.90;;;;;;4424827;32;20213;-69
2022/03/12 01:20:52;;;;;;;75.27;28.17;;;-3.30;99.90;;;;;;4410652;32;20178;-69
2022/03/12 01:23:24;;;;;;;68.47;27.17;;;-3.40;99.90;;;;;;4410446;32;20194;-70
2022/03/12 01:25:52;;;;;;;86.67;29.10;;;-3.40;99.90;;;;;;4424873;32;20547;-69
2022/03/12 01:28:21;;;;;;;80.30;29.53;;;-3.40;99.90;;;;;;4409199;32;20210;-70
2022/03/12 01:30:48;;;;;;;84.67;29.27;;;-3.40;99.90;;;;;;4411130;32;20447;-71
2022/03/12 01:33:15;;;;;;;77.33;28.47;;;-3.50;99.90;;;;;;4410169;32;20209;-69
2022/03/12 01:35:42;;;;;;;75.00;28.80;;;-3.50;99.90;;;;;;4411463;32;20164;-69
2022/03/12 01:38:08;;;;;;;76.63;29.03;;;-3.50;99.90;;;;;;4411238;32;20497;-68
2022/03/12 01:40:36;;;;;;;80.30;29.23;;;-3.60;99.90;;;;;;4424596;32;20491;-68
2022/03/12 01:43:04;;;;;;;82.43;29.93;;;-3.60;99.90;;;;;;4410714;32;20437;-68
2022/03/12 01:45:32;;;;;;;89.90;33.13;;;-3.60;99.90;;;;;;4411667;32;20175;-70
2022/03/12 01:48:01;;;;;;;90.93;33.17;;;-3.60;99.90;;;;;;4412270;32;20193;-70
2022/03/12 01:50:36;;;;;;;93.33;34.07;;;-3.60;99.90;;;;;;4413721;32;20199;-69
2022/03/12 01:53:09;;;;;;;99.10;35.17;;;-3.70;99.90;;;;;;4412054;32;20193;-70
2022/03/12 01:55:39;;;;;;;101.63;34.83;;;-3.70;99.90;;;;;;4412901;32;20197;-69
2022/03/12 01:58:08;;;;;;;103.40;36.20;;;-3.70;99.90;;;;;;4427288;32;20212;-69
2022/03/12 02:00:44;;;;;;;108.43;36.67;;;-3.70;99.90;;;;;;4413487;32;20222;-70
2022/03/12 02:03:13;;;;;;;107.00;37.00;;;-3.80;99.90;;;;;;4411683;32;20217;-69
2022/03/12 02:05:41;;;;;;;115.33;38.30;;;-3.80;99.90;;;;;;4413590;32;20239;-69
2022/03/12 02:08:13;;;;;;;115.07;39.13;;;-3.80;99.90;;;;;;4411836;32;20197;-70
2022/03/12 02:10:44;;;;;;;107.20;39.23;;;-3.90;99.90;;;;;;4413769;32;20182;-69
2022/03/12 02:13:12;;;;;;;112.57;39.23;;;-3.90;99.90;;;;;;4413373;32;20214;-69
2022/03/12 02:15:39;;;;;;;118.73;40.67;;;-3.90;99.90;;;;;;4412879;32;20217;-69
2022/03/12 02:18:06;;;;;;;114.03;40.47;;;-3.90;99.90;;;;;;4411859;32;20236;-69
2022/03/12 02:20:33;;;;;;;122.50;40.77;;;-3.90;99.90;;;;;;4413277;32;20234;-69
2022/03/12 02:23:00;;;;;;;118.93;41.33;;;-4.00;99.90;;;;;;4412315;32;20480;-70
2022/03/12 02:25:29;;;;;;;122.70;42.53;;;-3.90;99.90;;;;;;4412989;32;20179;-69
2022/03/12 02:27:58;;;;;;;110.40;38.90;;;-3.90;99.90;;;;;;4427220;32;20174;-69
2022/03/12 02:30:33;;;;;;;113.93;42.10;;;-3.90;99.90;;;;;;4425544;32;20170;-69
2022/03/12 02:33:01;;;;;;;118.83;40.90;;;-3.80;99.90;;;;;;4411532;32;20187;-70
2022/03/12 02:35:35;;;;;;;121.77;41.03;;;-3.80;99.90;;;;;;4411764;32;20190;-69
2022/03/12 02:38:07;;;;;;;123.53;40.03;;;-3.80;99.90;;;;;;4425366;32;20155;-69
2022/03/12 02:40:35;;;;;;;119.93;41.73;;;-3.90;99.90;;;;;;4413131;32;20496;-70
2022/03/12 02:43:03;;;;;;;113.57;39.63;;;-4.00;99.90;;;;;;4424824;32;20469;-70
2022/03/12 02:45:30;;;;;;;119.00;40.23;;;-4.00;99.90;;;;;;4425253;32;20182;-69
2022/03/12 02:47:57;;;;;;;113.33;39.47;;;-4.00;99.90;;;;;;4412821;32;20194;-70
2022/03/12 02:50:25;;;;;;;109.90;37.83;;;-4.00;99.90;;;;;;4411999;32;20204;-69
2022/03/12 02:52:52;;;;;;;106.80;38.17;;;-4.00;99.90;;;;;;4425415;32;20166;-69
2022/03/12 02:55:21;;;;;;;109.63;37.50;;;-4.00;99.90;;;;;;4412389;32;20258;-70
2022/03/12 02:57:49;;;;;;;110.43;38.60;;;-4.00;99.90;;;;;;4427204;32;20150;-69
2022/03/12 03:00:18;;;;;;;107.43;37.10;;;-4.00;99.90;;;;;;4412279;32;20178;-71
2022/03/12 03:02:53;;;;;;;107.67;37.37;;;-4.00;99.90;;;;;;4411448;32;20202;-70
2022/03/12 03:05:38;;;;;;;103.73;36.67;;;-4.00;99.90;;;;;;4412729;32;20182;-69
2022/03/12 03:08:07;;;;;;;107.67;36.97;;;-4.10;99.90;;;;;;4410520;32;20264;-69
2022/03/12 03:10:50;;;;;;;101.07;37.33;;;-4.00;99.90;;;;;;4410725;32;20286;-69
2022/03/12 03:13:17;;;;;;;101.27;36.50;;;-4.00;99.90;;;;;;4410866;32;20163;-69
2022/03/12 03:16:00;;;;;;;106.27;37.43;;;-4.00;99.90;;;;;;4426556;32;20190;-69
2022/03/12 03:18:32;;;;;;;103.03;36.03;;;-4.00;99.90;;;;;;4425687;32;20207;-71
2022/03/12 03:21:00;;;;;;;93.50;33.90;;;-4.00;99.90;;;;;;4412229;32;20178;-70
2022/03/12 03:23:29;;;;;;;101.70;36.13;;;-4.00;99.90;;;;;;4412200;32;20184;-71
2022/03/12 03:25:59;;;;;;;98.20;35.40;;;-4.00;99.90;;;;;;4425174;32;20525;-69
2022/03/12 03:28:26;;;;;;;105.20;36.33;;;-4.10;99.90;;;;;;4412458;32;20202;-70
2022/03/12 03:30:53;;;;;;;102.97;33.53;;;-4.10;99.90;;;;;;4411588;32;20563;-70
2022/03/12 03:33:22;;;;;;;95.67;35.37;;;-4.10;99.90;;;;;;4412649;32;20182;-69
2022/03/12 03:35:49;;;;;;;92.90;31.03;;;-4.00;99.90;;;;;;4410763;32;20481;-70
2022/03/12 03:38:17;;;;;;;91.23;30.53;;;-4.00;99.90;;;;;;4411387;32;20190;-70
2022/03/12 03:40:45;;;;;;;85.73;30.33;;;-4.10;99.90;;;;;;4425900;32;20428;-70
2022/03/12 03:43:22;;;;;;;65.47;26.13;;;-4.10;99.90;;;;;;4411890;32;20170;-70
2022/03/12 03:45:54;;;;;;;84.73;32.80;;;-4.00;99.90;;;;;;4410734;32;20202;-69
2022/03/12 03:48:27;;;;;;;83.27;32.57;;;-4.00;99.90;;;;;;4410443;32;20182;-70
2022/03/12 03:50:54;;;;;;;85.37;31.20;;;-4.00;99.90;;;;;;4412224;32;20199;-69
2022/03/12 03:53:23;;;;;;;88.63;32.53;;;-4.00;99.90;;;;;;4410557;32;20200;-70
2022/03/12 03:55:53;;;;;;;89.10;32.77;;;-4.00;99.90;;;;;;4411595;32;20191;-69
2022/03/12 03:58:20;;;;;;;86.40;31.37;;;-4.00;99.90;;;;;;4426515;32;20154;-69
2022/03/12 04:00:59;;;;;;;91.37;32.27;;;-4.10;99.90;;;;;;4410519;32;20238;-71
2022/03/12 04:03:34;;;;;;;90.33;31.23;;;-4.10;99.90;;;;;;4424473;32;20190;-70
2022/03/12 04:06:03;;;;;;;82.27;30.43;;;-4.10;99.90;;;;;;4412280;32;20397;-70
2022/03/12 04:08:31;;;;;;;91.10;32.23;;;-4.20;99.90;;;;;;4425233;32;20189;-69
2022/03/12 04:11:01;;;;;;;87.17;32.40;;;-4.20;99.90;;;;;;4411599;32;20190;-72
2022/03/12 04:13:28;;;;;;;97.47;32.70;;;-4.30;99.90;;;;;;4426213;32;20181;-71
2022/03/12 04:15:56;;;;;;;89.53;31.70;;;-4.30;99.90;;;;;;4411992;32;20265;-71
2022/03/12 04:18:23;;;;;;;93.03;33.90;;;-4.30;99.90;;;;;;4410317;32;20199;-70
2022/03/12 04:20:51;;;;;;;95.30;34.40;;;-4.30;99.90;;;;;;4424761;32;20146;-70
2022/03/12 04:23:21;;;;;;;86.10;32.57;;;-4.40;99.90;;;;;;4411236;32;20198;-70
2022/03/12 04:25:51;;;;;;;98.20;33.93;;;-4.40;99.90;;;;;;4410011;32;20202;-70
2022/03/12 04:28:20;;;;;;;97.90;33.47;;;-4.50;99.90;;;;;;4409714;32;20179;-70
2022/03/12 04:30:48;;;;;;;97.37;35.33;;;-4.50;99.90;;;;;;4411919;32;20185;-71
2022/03/12 04:33:15;;;;;;;94.10;35.13;;;-4.60;99.90;;;;;;4411268;32;20186;-70
2022/03/12 04:35:43;;;;;;;98.07;34.77;;;-4.60;99.90;;;;;;4409925;32;20493;-71
2022/03/12 04:38:11;;;;;;;93.73;34.77;;;-4.70;99.90;;;;;;4409606;32;20277;-72
2022/03/12 04:40:41;;;;;;;96.73;33.37;;;-4.70;99.90;;;;;;4411553;32;20196;-71
2022/03/12 04:43:09;;;;;;;86.33;33.87;;;-4.80;99.90;;;;;;4409675;32;20233;-70
2022/03/12 04:45:36;;;;;;;93.07;34.53;;;-4.80;99.90;;;;;;4410261;32;20210;-71
2022/03/12 04:48:04;;;;;;;92.77;33.83;;;-4.70;99.90;;;;;;4411558;32;20186;-71
2022/03/12 04:50:31;;;;;;;101.63;35.03;;;-4.70;99.90;;;;;;4411753;32;20233;-70
2022/03/12 04:53:01;;;;;;;96.80;35.57;;;-4.80;99.90;;;;;;4409061;32;20206;-69
2022/03/12 04:55:29;;;;;;;95.33;35.63;;;-4.80;99.90;;;;;;4424541;32;20166;-70
2022/03/12 04:57:57;;;;;;;99.07;36.33;;;-4.80;99.90;;;;;;4410776;32;20221;-70
2022/03/12 05:00:31;;;;;;;101.73;35.93;;;-4.80;99.90;;;;;;4424571;32;20162;-70
2022/03/12 05:03:09;;;;;;;96.57;34.87;;;-4.90;99.90;;;;;;4424180;32;20158;-70
2022/03/12 05:05:39;;;;;;;98.37;34.93;;;-4.90;99.90;;;;;;4409722;32;20213;-71
2022/03/12 05:08:10;;;;;;;95.73;34.70;;;-4.80;99.90;;;;;;4409400;32;20435;-70
2022/03/12 05:10:37;;;;;;;93.20;34.90;;;-4.80;99.90;;;;;;4410987;32;20455;-70
2022/03/12 05:13:04;;;;;;;87.77;34.07;;;-4.70;99.90;;;;;;4409243;32;20209;-70
2022/03/12 05:15:39;;;;;;;97.20;35.33;;;-4.70;99.90;;;;;;4411331;32;20197;-71
2022/03/12 05:18:08;;;;;;;95.10;34.17;;;-4.70;99.90;;;;;;4411090;32;20190;-71
2022/03/12 05:20:37;;;;;;;97.50;35.03;;;-4.70;99.90;;;;;;4414363;32;20233;-70
2022/03/12 05:23:08;;;;;;;92.93;33.93;;;-4.70;99.90;;;;;;4411898;32;20225;-71
2022/03/12 05:25:39;;;;;;;91.23;34.87;;;-4.70;99.90;;;;;;4412274;32;20277;-70
2022/03/12 05:28:06;;;;;;;100.83;35.03;;;-4.60;99.90;;;;;;4427669;32;20186;-71
2022/03/12 05:30:33;;;;;;;94.70;34.60;;;-4.60;99.90;;;;;;4412370;32;20217;-70
2022/03/12 05:33:00;;;;;;;96.40;34.83;;;-4.60;99.90;;;;;;4413477;32;20191;-70
2022/03/12 05:35:27;;;;;;;99.53;35.13;;;-4.60;99.90;;;;;;4412548;32;20224;-71
2022/03/12 05:37:53;;;;;;;94.27;35.53;;;-4.70;99.90;;;;;;4414367;32;20203;-70
2022/03/12 05:40:25;;;;;;;99.37;35.70;;;-4.70;99.90;;;;;;4413911;32;20528;-70
2022/03/12 05:42:55;;;;;;;106.53;35.93;;;-4.70;99.90;;;;;;4426717;32;20170;-71
2022/03/12 05:45:23;;;;;;;100.30;35.73;;;-4.70;99.90;;;;;;4411999;32;20285;-71
2022/03/12 05:47:51;;;;;;;102.73;35.87;;;-4.60;99.90;;;;;;4427588;32;20155;-71
2022/03/12 05:50:18;;;;;;;103.07;35.20;;;-4.60;99.90;;;;;;4413527;32;20304;-70
2022/03/12 05:52:48;;;;;;;95.73;34.87;;;-4.50;99.90;;;;;;4412424;32;20229;-70
2022/03/12 05:55:18;;;;;;;104.60;35.40;;;-4.40;99.90;;;;;;4426311;32;20287;-70
2022/03/12 05:57:46;;;;;;;101.70;35.17;;;-4.40;99.90;;;;;;4426435;32;20183;-70
2022/03/12 06:00:15;;;;;;;103.77;35.03;;;-4.40;99.90;;;;;;4428159;32;20197;-71
2022/03/12 06:02:52;;;;;;;98.47;35.43;;;-4.30;99.90;;;;;;4413625;32;20194;-71
2022/03/12 06:05:21;;;;;;;93.13;33.97;;;-4.40;99.90;;;;;;4412829;32;20182;-72
2022/03/12 06:07:49;;;;;;;94.40;34.53;;;-4.40;99.90;;;;;;4412876;32;20539;-72
2022/03/12 06:10:18;;;;;;;92.97;34.73;;;-4.30;99.90;;;;;;4399275;32;20202;-72
2022/03/12 06:12:46;;;;;;;92.73;34.60;;;-4.40;99.90;;;;;;4413966;32;20205;-71
2022/03/12 06:15:15;;;;;;;95.53;34.47;;;-4.30;99.90;;;;;;4411550;32;20234;-71
2022/03/12 06:17:46;;;;;;;92.73;33.57;;;-4.30;99.90;;;;;;4413269;32;20242;-72
2022/03/12 06:20:17;;;;;;;100.30;35.20;;;-4.30;99.90;;;;;;4413459;32;20246;-71
2022/03/12 06:22:44;;;;;;;98.13;34.97;;;-4.30;99.90;;;;;;4411367;32;20514;-71
2022/03/12 06:25:13;;;;;;;102.43;34.20;;;-4.30;99.90;;;;;;4426017;32;20181;-71
2022/03/12 06:27:42;;;;;;;94.90;34.03;;;-4.30;99.90;;;;;;4413076;32;20171;-71
2022/03/12 06:30:12;;;;;;;96.77;33.73;;;-4.30;99.90;;;;;;4424760;32;20224;-72
2022/03/12 06:32:42;;;;;;;93.13;33.90;;;-4.30;99.90;;;;;;4411377;32;20205;-71
2022/03/12 06:35:11;;;;;;;96.53;34.27;;;-4.20;99.90;;;;;;4412808;32;20262;-72
2022/03/12 06:37:39;;;;;;;95.27;34.40;;;-4.10;99.90;;;;;;4411342;32;20229;-71
2022/03/12 06:40:08;;;;;;;95.77;35.00;;;-4.00;99.90;;;;;;4411298;32;20225;-71
2022/03/12 06:42:36;;;;;;;95.00;35.40;;;-3.80;99.90;;;;;;4411212;32;20495;-72
2022/03/12 06:45:03;;;;;;;91.27;33.97;;;-3.70;99.90;;;;;;4411187;32;20202;-70
2022/03/12 06:47:31;;;;;;;94.60;34.97;;;-3.50;99.90;;;;;;4426236;32;20389;-70
2022/03/12 06:50:00;;;;;;;96.77;35.00;;;-3.40;99.90;;;;;;4411896;32;20213;-71
2022/03/12 06:52:28;;;;;;;89.27;32.80;;;-3.20;99.90;;;;;;4413064;32;20588;-71
2022/03/12 06:54:56;;;;;;;85.47;32.97;;;-3.00;99.90;;;;;;4412403;32;20605;-71
2022/03/12 06:57:23;;;;;;;88.27;31.80;;;-2.90;99.90;;;;;;4411509;32;20463;-71
2022/03/12 06:59:50;;;;;;;84.30;32.40;;;-2.70;99.90;;;;;;4413076;32;20181;-71
2022/03/12 07:02:17;;;;;;;89.33;33.93;;;-2.50;99.90;;;;;;4412898;32;20406;-71
2022/03/12 07:04:44;;;;;;;90.60;35.47;;;-2.30;99.90;;;;;;4411522;32;20179;-71
2022/03/12 07:07:10;;;;;;;87.63;34.43;;;-2.20;99.90;;;;;;4412508;32;20581;-70
2022/03/12 07:09:37;;;;;;;91.80;35.63;;;-2.10;99.90;;;;;;4411266;32;20229;-71
2022/03/12 07:12:05;;;;;;;89.87;35.33;;;-2.10;99.90;;;;;;4411688;32;20256;-71
2022/03/12 07:14:32;;;;;;;89.40;34.70;;;-2.00;99.90;;;;;;4424922;32;20178;-71
2022/03/12 07:16:59;;;;;;;86.70;35.17;;;-1.80;99.90;;;;;;4412716;32;20201;-70
2022/03/12 07:19:26;;;;;;;88.03;34.80;;;-1.70;99.90;;;;;;4412725;32;20512;-71
2022/03/12 07:21:53;;;;;;;98.30;37.10;;;-1.60;99.90;;;;;;4412925;32;20211;-72
2022/03/12 07:24:19;;;;;;;83.30;34.97;;;-1.40;99.90;;;;;;4410825;32;20208;-72
2022/03/12 07:26:46;;;;;;;91.57;35.70;;;-1.20;99.90;;;;;;4411564;32;20305;-72
2022/03/12 07:29:13;;;;;;;85.27;34.07;;;-1.10;99.90;;;;;;4425160;32;20188;-72
2022/03/12 07:31:40;;;;;;;84.23;32.77;;;-0.90;99.90;;;;;;4412251;32;20190;-71
2022/03/12 07:34:07;;;;;;;78.23;31.60;;;-0.70;99.90;;;;;;4412083;32;20186;-72
2022/03/12 07:36:34;;;;;;;79.20;31.77;;;-0.50;99.90;;;;;;4412336;32;20414;-71
2022/03/12 07:39:03;;;;;;;77.80;30.97;;;-0.30;99.90;;;;;;4412445;32;20205;-73
2022/03/12 07:41:31;;;;;;;67.63;27.30;;;-0.20;99.90;;;;;;4412178;32;20194;-72
2022/03/12 07:43:58;;;;;;;65.87;27.53;;;0.00;99.90;;;;;;4424602;32;20181;-73
2022/03/12 07:46:25;;;;;;;60.00;24.83;;;0.20;99.90;;;;;;4410940;32;20242;-72
2022/03/12 07:48:52;;;;;;;62.23;25.33;;;0.20;99.90;;;;;;4411148;32;20174;-72
2022/03/12 07:51:19;;;;;;;62.63;26.77;;;0.40;99.90;;;;;;4410508;32;20497;-73
2022/03/12 07:53:46;;;;;;;60.40;25.20;;;0.40;99.90;;;;;;4412874;32;20233;-73
2022/03/12 07:56:13;;;;;;;61.23;24.33;;;0.60;99.90;;;;;;4410309;32;20245;-73
2022/03/12 07:58:40;;;;;;;55.43;22.30;;;0.60;99.90;;;;;;4424462;32;20158;-73
2022/03/12 08:01:08;;;;;;;45.23;19.27;;;0.70;99.90;;;;;;4411995;32;20445;-73
2022/03/12 08:03:36;;;;;;;41.83;18.17;;;0.90;99.90;;;;;;4410220;32;20167;-73
2022/03/12 08:06:08;;;;;;;39.97;17.93;;;1.00;99.90;;;;;;4410734;32;20182;-73
2022/03/12 08:08:35;;;;;;;32.47;14.40;;;1.10;99.90;;;;;;4410587;32;20201;-73
2022/03/12 08:13:48;;;;;;;31.43;13.40;;;1.20;95.80;;;;;;4410329;32;20190;-73
2022/03/12 08:16:16;;;;;;;22.90;10.53;;;1.20;95.80;;;;;;4425541;32;20150;-72
2022/03/12 08:18:43;;;;;;;27.67;11.27;;;1.20;92.30;;;;;;4410444;32;20177;-72
2022/03/12 08:21:11;;;;;;;25.93;11.30;;;1.30;91.90;;;;;;4410016;32;20182;-72
2022/03/12 08:23:40;;;;;;;24.47;10.83;;;1.70;90.00;;;;;;4409863;32;20197;-72
2022/03/12 08:26:07;;;;;;;23.50;10.03;;;2.40;87.50;;;;;;4410761;32;20258;-73
2022/03/12 08:28:34;;;;;;;21.10;10.13;;;3.10;80.90;;;;;;4411044;32;20206;-73
2022/03/12 08:31:03;;;;;;;20.80;9.83;;;3.80;76.90;;;;;;4411614;32;20239;-72
2022/03/12 08:33:30;;;;;;;23.50;10.13;;;4.30;72.60;;;;;;4423549;32;20150;-73
2022/03/12 08:35:58;;;;;;;20.93;9.23;;;4.80;69.20;;;;;;4409419;32;20202;-73
2022/03/12 08:38:26;;;;;;;20.67;8.97;;;5.40;65.80;;;;;;4411166;32;20183;-73
2022/03/12 08:40:54;;;;;;;18.50;8.80;;;5.70;62.50;;;;;;4409790;32;20193;-73
2022/03/12 08:43:21;;;;;;;20.67;10.10;;;5.90;59.50;;;;;;4409654;32;20544;-73
2022/03/12 08:45:49;;;;;;;18.03;8.10;;;6.10;58.30;;;;;;4410330;32;20186;-72
2022/03/12 08:48:17;;;;;;;20.17;9.13;;;6.20;57.40;;;;;;4424327;32;20179;-72
2022/03/12 08:50:46;;;;;;;19.60;8.83;;;6.30;55.40;;;;;;4409725;32;20195;-72
2022/03/12 08:53:15;;;;;;;19.20;9.10;;;6.80;55.50;;;;;;4410091;32;20455;-72
2022/03/12 08:55:43;;;;;;;20.13;8.90;;;7.00;54.70;;;;;;4396769;32;20575;-71
2022/03/12 08:58:10;;;;;;;15.87;8.03;;;7.30;53.60;;;;;;4409841;32;20221;-71
2022/03/12 09:00:37;;;;;;;16.40;7.10;;;7.50;52.50;;;;;;4409450;32;20176;-72
2022/03/12 09:03:05;;;;;;;12.97;6.63;;;7.60;50.30;;;;;;4411231;32;20187;-72
2022/03/12 09:05:33;;;;;;;16.53;7.70;;;7.70;49.10;;;;;;4424141;32;20485;-72
2022/03/12 09:08:00;;;;;;;19.43;8.70;;;7.70;49.20;;;;;;4411045;32;20187;-73
2022/03/12 09:10:27;;;;;;;17.80;8.93;;;8.00;49.60;;;;;;4411233;32;20432;-73
2022/03/12 09:12:55;;;;;;;19.53;8.80;;;8.30;49.30;;;;;;4409403;32;20432;-74
2022/03/12 09:15:24;;;;;;;20.27;8.97;;;8.60;48.20;;;;;;4424286;32;20178;-73
2022/03/12 09:17:52;;;;;;;15.33;8.10;;;8.70;47.30;;;;;;4409427;32;20180;-73
2022/03/12 09:20:24;;;;;;;13.43;7.50;;;8.50;46.70;;;;;;4409837;32;20182;-78
2022/03/12 09:22:51;;;;;;;17.77;7.57;;;8.10;47.30;;;;;;4410417;32;20178;-78
2022/03/12 09:25:19;;;;;;;16.63;7.63;;;8.30;47.50;;;;;;4411384;32;20178;-78
2022/03/12 09:27:46;;;;;;;17.63;8.53;;;8.80;47.00;;;;;;4411007;32;20580;-77
2022/03/12 09:30:21;;;;;;;18.97;8.73;;;8.90;46.10;;;;;;4423864;32;20208;-78
2022/03/12 09:32:48;;;;;;;16.50;7.90;;;9.10;45.60;;;;;;4423308;32;20166;-77
2022/03/12 09:35:16;;;;;;;19.17;8.70;;;9.50;45.00;;;;;;4410314;32;20276;-77
2022/03/12 09:37:43;;;;;;;16.63;7.83;;;9.80;44.00;;;;;;4423629;32;20195;-79
2022/03/12 09:40:11;;;;;;;17.60;8.40;;;10.00;43.00;;;;;;4409038;32;20588;-79
2022/03/12 09:42:38;;;;;;;16.43;7.83;;;10.00;43.10;;;;;;4409900;32;20186;-79
2022/03/12 09:45:07;;;;;;;14.67;7.90;;;10.40;42.50;;;;;;4423463;32;20186;-79
2022/03/12 09:47:34;;;;;;;14.87;7.57;;;10.00;41.20;;;;;;4409626;32;20552;-78
2022/03/12 09:50:01;;;;;;;16.70;7.80;;;9.40;42.40;;;;;;4410398;32;20193;-79
2022/03/12 09:52:29;;;;;;;16.50;8.23;;;9.40;42.30;;;;;;4409923;32;20228;-79
2022/03/12 09:54:56;;;;;;;17.20;8.23;;;9.60;42.70;;;;;;4402142;32;20236;-79
2022/03/12 09:57:24;;;;;;;14.83;7.93;;;10.10;42.20;;;;;;4393625;32;20186;-79
2022/03/12 09:59:51;;;;;;;15.83;8.03;;;10.60;41.80;;;;;;4393807;32;20184;-79
2022/03/12 10:02:19;;;;;;;15.73;7.57;;;11.10;41.30;;;;;;4394244;32;20197;-78
2022/03/12 10:04:47;;;;;;;15.83;7.30;;;11.40;39.60;;;;;;4393927;32;20191;-78
2022/03/12 10:07:14;;;;;;;13.03;7.23;;;11.80;38.90;;;;;;4396864;32;20198;-78
2022/03/12 10:09:42;;;;;;;14.27;7.43;;;12.10;38.40;;;;;;4397051;32;20201;-77
2022/03/12 10:12:10;;;;;;;12.73;6.93;;;12.10;37.90;;;;;;4397152;32;20227;-78
2022/03/12 10:14:37;;;;;;;15.40;7.33;;;12.10;38.10;;;;;;4411280;32;20132;-77
2022/03/12 10:17:05;;;;;;;13.60;6.93;;;12.40;37.90;;;;;;4396874;32;20190;-78
2022/03/12 10:19:38;;;;;;;13.20;6.40;;;12.70;37.20;;;;;;4396835;32;20217;-78
2022/03/12 10:22:08;;;;;;;13.83;6.40;;;12.80;36.10;;;;;;4396584;32;20193;-77
2022/03/12 10:24:36;;;;;;;14.33;6.83;;;13.00;35.70;;;;;;4410930;32;20209;-77
2022/03/12 10:27:06;;;;;;;12.37;6.83;;;13.20;35.60;;;;;;4396405;32;20213;-76
2022/03/12 10:29:35;;;;;;;15.60;7.10;;;13.60;35.30;;;;;;4396464;32;20331;-77
2022/03/12 10:32:28;;;;;;;11.70;6.33;;;13.80;35.00;;;;;;4396751;32;20177;-77
2022/03/12 10:35:00;;;;;;;10.40;6.10;;;13.80;34.60;;;;;;4410778;32;20159;-78
2022/03/12 10:37:31;;;;;;;12.63;6.50;;;13.60;34.30;;;;;;4396256;32;20186;-77
2022/03/12 10:40:08;;;;;;;13.37;6.53;;;13.60;34.00;;;;;;4395895;32;20232;-78
2022/03/12 10:42:45;;;;;;;12.13;6.43;;;13.40;33.90;;;;;;4410325;32;20464;-78
2022/03/12 10:45:15;;;;;;;11.17;6.30;;;13.50;34.10;;;;;;4396188;32;20205;-78
2022/03/12 10:47:51;;;;;;;13.13;6.33;;;13.40;34.00;;;;;;4411346;32;20394;-78
2022/03/12 10:50:22;;;;;;;11.87;6.07;;;13.50;34.50;;;;;;4396683;32;20201;-77
2022/03/12 10:52:52;;;;;;;12.83;6.53;;;13.70;33.50;;;;;;4417770;32;20211;-78
2022/03/12 10:55:28;;;;;;;10.77;6.40;;;13.90;33.30;;;;;;4411622;32;20260;-82
2022/03/12 10:58:04;;;;;;;11.20;6.00;;;14.20;33.20;;;;;;4425460;32;20149;-78
2022/03/12 11:00:37;;;;;;;13.80;6.33;;;14.50;32.60;;;;;;4425330;32;20141;-78
2022/03/12 11:03:13;;;;;;;11.63;6.33;;;15.10;32.60;;;;;;4411755;32;20229;-77
2022/03/12 11:05:43;;;;;;;12.67;6.50;;;15.50;32.70;;;;;;4411611;32;20196;-77
2022/03/12 11:08:18;;;;;;;9.87;6.00;;;15.70;33.50;;;;;;4411044;32;20217;-76
2022/03/12 11:11:00;;;;;;;14.50;6.10;;;16.10;34.20;;;;;;4425529;32;20215;-80
2022/03/12 11:13:36;;;;;;;14.03;6.60;;;16.20;37.20;;;;;;4411220;32;20246;-72
2022/03/12 11:16:14;;;;;;;10.93;6.07;;;16.70;37.60;;;;;;4410175;32;20211;-72
2022/03/12 11:18:51;;;;;;;9.63;6.00;;;16.60;37.90;;;;;;4406637;32;20183;-72
2022/03/12 11:21:30;;;;;;;11.03;6.00;;;16.30;37.20;;;;;;4411748;32;20196;-72
2022/03/12 11:23:59;;;;;;;11.17;5.83;;;16.20;38.00;;;;;;4410392;32;20178;-72
2022/03/12 11:26:27;;;;;;;9.17;5.03;;;15.70;36.10;;;;;;4411489;32;20457;-72
2022/03/12 11:28:57;;;;;;;11.93;5.37;;;15.50;38.50;;;;;;4411477;32;20455;-72
2022/03/12 11:31:50;;;;;;;11.00;5.20;;;15.70;38.30;;;;;;4425118;32;20400;-72
2022/03/12 11:34:38;;;;;;;7.73;4.77;;;16.00;37.40;;;;;;4410830;32;20225;-72
2022/03/12 11:37:14;;;;;;;7.97;4.17;;;16.50;39.10;;;;;;4425830;32;20171;-72
2022/03/12 11:39:52;;;;;;;6.70;4.00;;;16.90;38.70;;;;;;4411464;32;20225;-72
2022/03/12 11:42:23;;;;;;;8.57;4.50;;;17.20;37.60;;;;;;4410230;32;20192;-72
2022/03/12 11:44:57;;;;;;;10.43;4.90;;;17.60;34.80;;;;;;4410466;32;20544;-72
2022/03/12 11:47:28;;;;;;;7.87;4.80;;;18.10;35.60;;;;;;4411666;32;20174;-73
2022/03/12 11:49:57;;;;;;;9.73;5.30;;;18.70;33.50;;;;;;4410559;32;20206;-72
2022/03/12 11:52:24;;;;;;;8.27;5.10;;;19.50;30.00;;;;;;4410659;32;20539;-72
2022/03/12 11:54:54;;;;;;;9.93;5.07;;;19.90;32.60;;;;;;4410447;32;20448;-73
2022/03/12 11:57:27;;;;;;;9.47;4.40;;;20.40;32.00;;;;;;4410144;32;20205;-72
2022/03/12 11:59:56;;;;;;;10.30;5.03;;;21.00;31.50;;;;;;4411213;32;20182;-73
2022/03/12 12:02:26;;;;;;;8.57;4.90;;;21.40;28.60;;;;;;4410905;32;20223;-73
2022/03/12 12:04:55;;;;;;;8.90;5.17;;;21.20;28.90;;;;;;4410123;32;20198;-73
2022/03/12 12:07:29;;;;;;;7.63;4.50;;;21.60;28.80;;;;;;4424427;32;20233;-73
2022/03/12 12:09:56;;;;;;;9.90;4.90;;;21.90;29.50;;;;;;4410305;32;20178;-75
2022/03/12 12:12:27;;;;;;;8.53;5.27;;;22.40;29.80;;;;;;4410338;32;20433;-74
2022/03/12 12:14:54;;;;;;;8.77;5.20;;;22.80;28.30;;;;;;4410106;32;20213;-74
2022/03/12 12:17:21;;;;;;;10.07;5.83;;;22.70;26.80;;;;;;4408851;32;20189;-75
2022/03/12 12:19:49;;;;;;;8.20;5.07;;;22.90;27.10;;;;;;4411340;32;20186;-74
2022/03/12 12:22:18;;;;;;;8.70;5.67;;;23.30;27.30;;;;;;4410214;32;20238;-74
2022/03/12 12:24:45;;;;;;;9.63;5.73;;;23.70;27.60;;;;;;4410287;32;20187;-75
2022/03/12 12:27:14;;;;;;;10.03;5.73;;;23.30;27.60;;;;;;4409979;32;20178;-74
2022/03/12 12:29:46;;;;;;;8.10;5.10;;;23.40;26.80;;;;;;4424367;32;20146;-74
2022/03/12 12:32:20;;;;;;;13.00;5.87;;;23.00;25.90;;;;;;4410163;32;20167;-75
2022/03/12 12:35:16;;;;;;;9.20;5.35;;;23.40;26.70;;;;;;4423571;32;20214;-73
2022/03/12 12:38:08;;;;;;;9.50;5.47;;;23.80;25.10;;;;;;4399273;32;20230;-73
2022/03/12 12:40:54;;;;;;;10.27;5.53;;;24.30;25.60;;;;;;4408626;32;20230;-73
2022/03/12 12:43:32;;;;;;;9.60;5.68;;;24.30;26.30;;;;;;4407843;32;20190;-73
2022/03/12 12:46:08;;;;;;;7.65;4.97;;;24.50;25.40;;;;;;4393971;32;20174;-73